sensor_id;sensor_type;location;lat;lon;timestamp;temperature;humidity
31113;DHT22;17763;48.730;9.136;2024-03-02T00:00:26;6.70;99.90
31113;DHT22;17763;48.730;9.136;2024-03-02T00:02:52;6.60;99.90
31113;DHT22;17763;48.730;9.136;2024-03-02T00:05:20;6.70;99.90
31113;DHT22;17763;48.730;9.136;2024-03-02T00:07:52;6.70;99.90
31113;DHT22;17763;48.730;9.136;2024-03-02T00:10:20;6.70;99.90
31113;DHT22;17763;48.730;9.136;2024-03-02T00:12:49;6.70;99.90
31113;DHT22;17763;48.730;9.136;2024-03-02T00:17:56;6.50;99.90
31113;DHT22;17763;48.730;9.136;2024-03-02T00:20:25;6.50;99.90
31113;DHT22;17763;48.730;9.136;2024-03-02T00:23:02;6.40;99.90
31113;DHT22;17763;48.730;9.136;2024-03-02T00:25:38;6.40;99.90
31113;DHT22;17763;48.730;9.136;2024-03-02T00:28:16;6.40;99.90
31113;DHT22;17763;48.730;9.136;2024-03-02T00:30:59;6.40;99.90
31113;DHT22;17763;48.730;9.136;2024-03-02T00:36:09;6.30;99.90
31113;DHT22;17763;48.730;9.136;2024-03-02T00:38:49;6.30;99.90
31113;DHT22;17763;48.730;9.136;2024-03-02T00:41:26;6.30;99.90
31113;DHT22;17763;48.730;9.136;2024-03-02T00:46:30;6.30;99.90
31113;DHT22;17763;48.730;9.136;2024-03-02T00:49:00;6.30;99.90
31113;DHT22;17763;48.730;9.136;2024-03-02T00:51:30;6.30;99.90
31113;DHT22;17763;48.730;9.136;2024-03-02T00:53:59;6.30;99.90
31113;DHT22;17763;48.730;9.136;2024-03-02T00:56:25;6.20;99.90
31113;DHT22;17763;48.730;9.136;2024-03-02T00:58:52;6.20;99.90
31113;DHT22;17763;48.730;9.136;2024-03-02T01:01:18;6.20;99.90
31113;DHT22;17763;48.730;9.136;2024-03-02T01:03:45;6.10;99.90
31113;DHT22;17763;48.730;9.136;2024-03-02T01:06:11;6.10;99.90
31113;DHT22;17763;48.730;9.136;2024-03-02T01:08:38;6.10;99.90
31113;DHT22;17763;48.730;9.136;2024-03-02T01:11:04;6.10;99.90
31113;DHT22;17763;48.730;9.136;2024-03-02T01:13:32;6.10;99.90
31113;DHT22;17763;48.730;9.136;2024-03-02T01:16:01;6.10;99.90
31113;DHT22;17763;48.730;9.136;2024-03-02T01:18:27;6.10;99.90
31113;DHT22;17763;48.730;9.136;2024-03-02T01:20:53;6.10;99.90
31113;DHT22;17763;48.730;9.136;2024-03-02T01:23:21;6.10;99.90
31113;DHT22;17763;48.730;9.136;2024-03-02T01:25:47;6.10;99.90
31113;DHT22;17763;48.730;9.136;2024-03-02T01:28:14;6.10;99.90
31113;DHT22;17763;48.730;9.136;2024-03-02T01:30:42;6.00;99.90
31113;DHT22;17763;48.730;9.136;2024-03-02T01:33:08;6.00;99.90
31113;DHT22;17763;48.730;9.136;2024-03-02T01:35:39;6.20;99.90
31113;DHT22;17763;48.730;9.136;2024-03-02T01:38:05;6.00;99.90
31113;DHT22;17763;48.730;9.136;2024-03-02T01:40:34;6.00;99.90
31113;DHT22;17763;48.730;9.136;2024-03-02T01:43:00;6.00;99.90
31113;DHT22;17763;48.730;9.136;2024-03-02T01:45:28;6.00;99.90
31113;DHT22;17763;48.730;9.136;2024-03-02T01:47:54;6.00;99.90
31113;DHT22;17763;48.730;9.136;2024-03-02T01:50:28;6.00;99.90
31113;DHT22;17763;48.730;9.136;2024-03-02T01:52:56;6.00;99.90
31113;DHT22;17763;48.730;9.136;2024-03-02T01:55:22;5.90;99.90
31113;DHT22;17763;48.730;9.136;2024-03-02T01:57:49;5.90;99.90
31113;DHT22;17763;48.730;9.136;2024-03-02T02:00:16;5.90;99.90
31113;DHT22;17763;48.730;9.136;2024-03-02T02:02:45;5.90;99.90
31113;DHT22;17763;48.730;9.136;2024-03-02T02:05:14;5.90;99.90
31113;DHT22;17763;48.730;9.136;2024-03-02T02:07:41;5.90;99.90
31113;DHT22;17763;48.730;9.136;2024-03-02T02:10:07;5.80;99.90
31113;DHT22;17763;48.730;9.136;2024-03-02T02:12:33;5.80;99.90
31113;DHT22;17763;48.730;9.136;2024-03-02T02:14:59;5.80;99.90
31113;DHT22;17763;48.730;9.136;2024-03-02T02:17:24;5.80;99.90
31113;DHT22;17763;48.730;9.136;2024-03-02T02:19:50;5.70;99.90
31113;DHT22;17763;48.730;9.136;2024-03-02T02:22:16;5.70;99.90
31113;DHT22;17763;48.730;9.136;2024-03-02T02:24:42;5.70;99.90
31113;DHT22;17763;48.730;9.136;2024-03-02T02:27:08;5.70;99.90
31113;DHT22;17763;48.730;9.136;2024-03-02T02:29:35;5.70;99.90
31113;DHT22;17763;48.730;9.136;2024-03-02T02:32:01;5.60;99.90
31113;DHT22;17763;48.730;9.136;2024-03-02T02:34:26;5.50;99.90
31113;DHT22;17763;48.730;9.136;2024-03-02T02:36:55;5.50;99.90
31113;DHT22;17763;48.730;9.136;2024-03-02T02:39:21;5.40;99.90
31113;DHT22;17763;48.730;9.136;2024-03-02T02:41:52;5.50;99.90
31113;DHT22;17763;48.730;9.136;2024-03-02T02:44:18;5.50;99.90
31113;DHT22;17763;48.730;9.136;2024-03-02T02:46:44;5.40;99.90
31113;DHT22;17763;48.730;9.136;2024-03-02T02:49:12;5.40;99.90
31113;DHT22;17763;48.730;9.136;2024-03-02T02:51:37;5.40;99.90
31113;DHT22;17763;48.730;9.136;2024-03-02T02:54:03;5.90;99.90
31113;DHT22;17763;48.730;9.136;2024-03-02T02:56:31;5.40;99.90
31113;DHT22;17763;48.730;9.136;2024-03-02T02:58:57;5.50;99.90
31113;DHT22;17763;48.730;9.136;2024-03-02T03:01:22;5.40;99.90
31113;DHT22;17763;48.730;9.136;2024-03-02T03:03:51;5.40;99.90
31113;DHT22;17763;48.730;9.136;2024-03-02T03:06:16;5.40;99.90
31113;DHT22;17763;48.730;9.136;2024-03-02T03:08:42;5.40;99.90
31113;DHT22;17763;48.730;9.136;2024-03-02T03:11:08;5.40;99.90
31113;DHT22;17763;48.730;9.136;2024-03-02T03:13:36;5.40;99.90
31113;DHT22;17763;48.730;9.136;2024-03-02T03:16:07;5.40;99.90
31113;DHT22;17763;48.730;9.136;2024-03-02T03:18:32;5.40;99.90
31113;DHT22;17763;48.730;9.136;2024-03-02T03:20:58;5.40;99.90
31113;DHT22;17763;48.730;9.136;2024-03-02T03:23:24;5.40;99.90
31113;DHT22;17763;48.730;9.136;2024-03-02T03:25:53;5.40;99.90
31113;DHT22;17763;48.730;9.136;2024-03-02T03:28:19;5.40;99.90
31113;DHT22;17763;48.730;9.136;2024-03-02T03:30:45;5.40;99.90
31113;DHT22;17763;48.730;9.136;2024-03-02T03:33:10;5.40;99.90
31113;DHT22;17763;48.730;9.136;2024-03-02T03:35:37;5.40;99.90
31113;DHT22;17763;48.730;9.136;2024-03-02T03:38:03;5.30;99.90
31113;DHT22;17763;48.730;9.136;2024-03-02T03:40:32;5.30;99.90
31113;DHT22;17763;48.730;9.136;2024-03-02T03:43:00;5.20;99.90
31113;DHT22;17763;48.730;9.136;2024-03-02T03:45:26;5.20;99.90
31113;DHT22;17763;48.730;9.136;2024-03-02T03:47:54;5.20;99.90
31113;DHT22;17763;48.730;9.136;2024-03-02T03:50:23;5.20;99.90
31113;DHT22;17763;48.730;9.136;2024-03-02T03:52:49;5.20;99.90
31113;DHT22;17763;48.730;9.136;2024-03-02T03:55:15;5.20;99.90
31113;DHT22;17763;48.730;9.136;2024-03-02T03:57:40;5.20;99.90
31113;DHT22;17763;48.730;9.136;2024-03-02T04:00:07;5.20;99.90
31113;DHT22;17763;48.730;9.136;2024-03-02T04:02:36;5.20;99.90
31113;DHT22;17763;48.730;9.136;2024-03-02T04:05:01;5.20;99.90
31113;DHT22;17763;48.730;9.136;2024-03-02T04:07:35;5.30;99.90
31113;DHT22;17763;48.730;9.136;2024-03-02T04:10:08;5.30;99.90
31113;DHT22;17763;48.730;9.136;2024-03-02T04:12:36;5.20;99.90
31113;DHT22;17763;48.730;9.136;2024-03-02T04:15:05;5.30;99.90
31113;DHT22;17763;48.730;9.136;2024-03-02T04:17:32;5.30;99.90
31113;DHT22;17763;48.730;9.136;2024-03-02T04:20:01;5.20;99.90
31113;DHT22;17763;48.730;9.136;2024-03-02T04:22:27;5.30;99.90
31113;DHT22;17763;48.730;9.136;2024-03-02T04:24:53;5.20;99.90
31113;DHT22;17763;48.730;9.136;2024-03-02T04:27:19;5.20;99.90
31113;DHT22;17763;48.730;9.136;2024-03-02T04:29:47;5.20;99.90
31113;DHT22;17763;48.730;9.136;2024-03-02T04:32:13;5.20;99.90
31113;DHT22;17763;48.730;9.136;2024-03-02T04:34:38;5.20;99.90
31113;DHT22;17763;48.730;9.136;2024-03-02T04:37:04;5.20;99.90
31113;DHT22;17763;48.730;9.136;2024-03-02T04:39:29;5.20;99.90
31113;DHT22;17763;48.730;9.136;2024-03-02T04:41:55;5.20;99.90
31113;DHT22;17763;48.730;9.136;2024-03-02T04:44:21;5.20;99.90
31113;DHT22;17763;48.730;9.136;2024-03-02T04:46:46;5.20;99.90
31113;DHT22;17763;48.730;9.136;2024-03-02T04:49:12;5.20;99.90
31113;DHT22;17763;48.730;9.136;2024-03-02T04:51:37;5.20;99.90
31113;DHT22;17763;48.730;9.136;2024-03-02T04:54:03;5.20;99.90
31113;DHT22;17763;48.730;9.136;2024-03-02T04:56:28;5.20;99.90
31113;DHT22;17763;48.730;9.136;2024-03-02T04:58:57;5.20;99.90
31113;DHT22;17763;48.730;9.136;2024-03-02T05:01:22;5.20;99.90
31113;DHT22;17763;48.730;9.136;2024-03-02T05:03:48;5.20;99.90
31113;DHT22;17763;48.730;9.136;2024-03-02T05:06:14;5.10;99.90
31113;DHT22;17763;48.730;9.136;2024-03-02T05:08:39;5.20;99.90
31113;DHT22;17763;48.730;9.136;2024-03-02T05:11:05;5.10;99.90
31113;DHT22;17763;48.730;9.136;2024-03-02T05:13:49;5.10;99.90
31113;DHT22;17763;48.730;9.136;2024-03-02T05:16:15;5.10;99.90
31113;DHT22;17763;48.730;9.136;2024-03-02T05:18:40;5.00;99.90
31113;DHT22;17763;48.730;9.136;2024-03-02T05:21:06;5.10;99.90
31113;DHT22;17763;48.730;9.136;2024-03-02T05:23:32;5.00;99.90
31113;DHT22;17763;48.730;9.136;2024-03-02T05:25:57;5.00;99.90
31113;DHT22;17763;48.730;9.136;2024-03-02T05:28:23;5.00;99.90
31113;DHT22;17763;48.730;9.136;2024-03-02T05:30:48;5.00;99.90
31113;DHT22;17763;48.730;9.136;2024-03-02T05:33:15;4.90;99.90
31113;DHT22;17763;48.730;9.136;2024-03-02T05:35:40;4.90;99.90
31113;DHT22;17763;48.730;9.136;2024-03-02T05:38:06;4.90;99.90
31113;DHT22;17763;48.730;9.136;2024-03-02T05:40:34;4.90;99.90
31113;DHT22;17763;48.730;9.136;2024-03-02T05:42:59;4.90;99.90
31113;DHT22;17763;48.730;9.136;2024-03-02T05:45:25;4.90;99.90
31113;DHT22;17763;48.730;9.136;2024-03-02T05:47:50;4.90;99.90
31113;DHT22;17763;48.730;9.136;2024-03-02T05:50:16;4.90;99.90
31113;DHT22;17763;48.730;9.136;2024-03-02T05:52:41;4.90;99.90
31113;DHT22;17763;48.730;9.136;2024-03-02T05:55:07;4.90;99.90
31113;DHT22;17763;48.730;9.136;2024-03-02T05:57:33;4.90;99.90
31113;DHT22;17763;48.730;9.136;2024-03-02T06:00:26;4.90;99.90
31113;DHT22;17763;48.730;9.136;2024-03-02T06:02:52;4.90;99.90
31113;DHT22;17763;48.730;9.136;2024-03-02T06:05:17;5.00;99.90
31113;DHT22;17763;48.730;9.136;2024-03-02T06:07:44;5.00;99.90
31113;DHT22;17763;48.730;9.136;2024-03-02T06:10:10;5.00;99.90
31113;DHT22;17763;48.730;9.136;2024-03-02T06:12:36;5.00;99.90
31113;DHT22;17763;48.730;9.136;2024-03-02T06:15:02;5.10;99.90
31113;DHT22;17763;48.730;9.136;2024-03-02T06:17:29;5.00;99.90
31113;DHT22;17763;48.730;9.136;2024-03-02T06:19:57;5.10;99.90
31113;DHT22;17763;48.730;9.136;2024-03-02T06:22:25;5.10;99.90
31113;DHT22;17763;48.730;9.136;2024-03-02T06:24:51;5.20;99.90
31113;DHT22;17763;48.730;9.136;2024-03-02T06:27:16;5.20;99.90
31113;DHT22;17763;48.730;9.136;2024-03-02T06:29:42;5.10;99.90
31113;DHT22;17763;48.730;9.136;2024-03-02T06:32:08;5.20;99.90
31113;DHT22;17763;48.730;9.136;2024-03-02T06:34:33;5.20;99.90
31113;DHT22;17763;48.730;9.136;2024-03-02T06:36:59;5.20;99.90
31113;DHT22;17763;48.730;9.136;2024-03-02T06:39:25;5.30;99.90
31113;DHT22;17763;48.730;9.136;2024-03-02T06:41:51;5.40;99.90
31113;DHT22;17763;48.730;9.136;2024-03-02T06:44:19;5.40;99.90
31113;DHT22;17763;48.730;9.136;2024-03-02T06:46:46;5.40;99.90
31113;DHT22;17763;48.730;9.136;2024-03-02T06:49:12;5.50;99.90
31113;DHT22;17763;48.730;9.136;2024-03-02T06:51:37;5.50;99.90
31113;DHT22;17763;48.730;9.136;2024-03-02T06:54:03;5.60;99.90
31113;DHT22;17763;48.730;9.136;2024-03-02T06:56:28;5.60;99.90
31113;DHT22;17763;48.730;9.136;2024-03-02T06:58:54;5.70;99.90
31113;DHT22;17763;48.730;9.136;2024-03-02T07:01:20;5.60;99.90
31113;DHT22;17763;48.730;9.136;2024-03-02T07:03:46;5.70;99.90
31113;DHT22;17763;48.730;9.136;2024-03-02T07:06:11;5.70;99.90
31113;DHT22;17763;48.730;9.136;2024-03-02T07:08:37;5.70;99.90
31113;DHT22;17763;48.730;9.136;2024-03-02T07:11:03;5.80;99.90
31113;DHT22;17763;48.730;9.136;2024-03-02T07:13:28;5.80;99.90
31113;DHT22;17763;48.730;9.136;2024-03-02T07:15:54;6.10;99.90
31113;DHT22;17763;48.730;9.136;2024-03-02T07:18:29;6.10;99.90
31113;DHT22;17763;48.730;9.136;2024-03-02T07:20:58;6.20;99.90
31113;DHT22;17763;48.730;9.136;2024-03-02T07:23:26;6.30;99.90
31113;DHT22;17763;48.730;9.136;2024-03-02T07:25:56;6.40;99.90
31113;DHT22;17763;48.730;9.136;2024-03-02T07:28:26;6.60;99.90
31113;DHT22;17763;48.730;9.136;2024-03-02T07:31:01;6.80;99.90
31113;DHT22;17763;48.730;9.136;2024-03-02T07:33:27;6.90;99.90
31113;DHT22;17763;48.730;9.136;2024-03-02T07:35:56;7.00;99.90
31113;DHT22;17763;48.730;9.136;2024-03-02T07:38:22;7.00;99.90
31113;DHT22;17763;48.730;9.136;2024-03-02T07:40:49;7.00;99.90
31113;DHT22;17763;48.730;9.136;2024-03-02T07:43:18;6.90;99.90
31113;DHT22;17763;48.730;9.136;2024-03-02T07:45:48;6.90;99.90
31113;DHT22;17763;48.730;9.136;2024-03-02T07:48:14;6.90;99.90
31113;DHT22;17763;48.730;9.136;2024-03-02T07:50:40;6.90;99.90
31113;DHT22;17763;48.730;9.136;2024-03-02T07:53:05;6.90;99.90
31113;DHT22;17763;48.730;9.136;2024-03-02T07:55:35;6.90;99.90
31113;DHT22;17763;48.730;9.136;2024-03-02T07:58:01;6.90;99.90
31113;DHT22;17763;48.730;9.136;2024-03-02T08:00:27;7.00;99.90
31113;DHT22;17763;48.730;9.136;2024-03-02T08:02:56;7.00;99.90
31113;DHT22;17763;48.730;9.136;2024-03-02T08:05:21;7.00;99.90
31113;DHT22;17763;48.730;9.136;2024-03-02T08:07:51;7.00;99.90
31113;DHT22;17763;48.730;9.136;2024-03-02T08:10:19;7.10;99.90
31113;DHT22;17763;48.730;9.136;2024-03-02T08:12:45;7.10;99.90
31113;DHT22;17763;48.730;9.136;2024-03-02T08:15:11;7.30;99.90
31113;DHT22;17763;48.730;9.136;2024-03-02T08:17:40;7.30;99.90
31113;DHT22;17763;48.730;9.136;2024-03-02T08:20:11;7.40;99.90
31113;DHT22;17763;48.730;9.136;2024-03-02T08:22:37;7.60;99.90
31113;DHT22;17763;48.730;9.136;2024-03-02T08:25:03;7.70;99.90
31113;DHT22;17763;48.730;9.136;2024-03-02T08:27:29;7.90;99.90
31113;DHT22;17763;48.730;9.136;2024-03-02T08:29:54;8.00;99.90
31113;DHT22;17763;48.730;9.136;2024-03-02T08:32:20;8.10;99.90
31113;DHT22;17763;48.730;9.136;2024-03-02T08:34:45;8.20;99.90
31113;DHT22;17763;48.730;9.136;2024-03-02T08:37:13;8.40;99.90
31113;DHT22;17763;48.730;9.136;2024-03-02T08:39:39;8.60;99.90
31113;DHT22;17763;48.730;9.136;2024-03-02T08:42:05;8.80;99.90
31113;DHT22;17763;48.730;9.136;2024-03-02T08:44:30;8.90;99.90
31113;DHT22;17763;48.730;9.136;2024-03-02T08:46:56;9.00;99.90
31113;DHT22;17763;48.730;9.136;2024-03-02T08:49:22;9.20;99.90
31113;DHT22;17763;48.730;9.136;2024-03-02T08:51:47;9.40;99.90
31113;DHT22;17763;48.730;9.136;2024-03-02T08:54:21;9.50;99.90
31113;DHT22;17763;48.730;9.136;2024-03-02T08:56:47;9.70;99.90
31113;DHT22;17763;48.730;9.136;2024-03-02T08:59:13;9.80;99.90
31113;DHT22;17763;48.730;9.136;2024-03-02T09:01:40;10.00;99.90
31113;DHT22;17763;48.730;9.136;2024-03-02T09:04:07;10.00;99.90
31113;DHT22;17763;48.730;9.136;2024-03-02T09:06:34;10.30;99.90
31113;DHT22;17763;48.730;9.136;2024-03-02T09:09:00;10.40;99.90
31113;DHT22;17763;48.730;9.136;2024-03-02T09:11:26;10.60;99.90
31113;DHT22;17763;48.730;9.136;2024-03-02T09:13:51;10.60;99.90
31113;DHT22;17763;48.730;9.136;2024-03-02T09:16:18;10.70;99.90
31113;DHT22;17763;48.730;9.136;2024-03-02T09:18:44;10.90;99.90
31113;DHT22;17763;48.730;9.136;2024-03-02T09:21:09;10.90;99.90
31113;DHT22;17763;48.730;9.136;2024-03-02T09:23:35;10.90;99.90
31113;DHT22;17763;48.730;9.136;2024-03-02T09:26:01;11.10;99.90
31113;DHT22;17763;48.730;9.136;2024-03-02T09:28:26;11.20;99.90
31113;DHT22;17763;48.730;9.136;2024-03-02T09:30:52;11.30;99.90
31113;DHT22;17763;48.730;9.136;2024-03-02T09:33:17;11.40;99.90
31113;DHT22;17763;48.730;9.136;2024-03-02T09:35:43;11.40;99.90
31113;DHT22;17763;48.730;9.136;2024-03-02T09:38:11;11.60;99.90
31113;DHT22;17763;48.730;9.136;2024-03-02T09:40:37;11.70;99.90
31113;DHT22;17763;48.730;9.136;2024-03-02T09:43:03;11.80;99.60
31113;DHT22;17763;48.730;9.136;2024-03-02T09:45:30;11.90;99.40
31113;DHT22;17763;48.730;9.136;2024-03-02T09:47:55;12.00;99.10
31113;DHT22;17763;48.730;9.136;2024-03-02T09:50:21;12.10;98.80
31113;DHT22;17763;48.730;9.136;2024-03-02T09:52:48;12.10;98.10
31113;DHT22;17763;48.730;9.136;2024-03-02T09:55:16;12.20;97.90
31113;DHT22;17763;48.730;9.136;2024-03-02T09:57:43;12.30;97.30
31113;DHT22;17763;48.730;9.136;2024-03-02T10:00:11;12.40;97.10
31113;DHT22;17763;48.730;9.136;2024-03-02T10:02:40;12.40;96.90
31113;DHT22;17763;48.730;9.136;2024-03-02T10:05:07;12.50;96.90
31113;DHT22;17763;48.730;9.136;2024-03-02T10:07:37;12.50;96.60
31113;DHT22;17763;48.730;9.136;2024-03-02T10:10:16;12.60;96.40
31113;DHT22;17763;48.730;9.136;2024-03-02T10:12:41;12.60;96.10
31113;DHT22;17763;48.730;9.136;2024-03-02T10:15:07;12.70;96.20
31113;DHT22;17763;48.730;9.136;2024-03-02T10:17:34;12.80;95.90
31113;DHT22;17763;48.730;9.136;2024-03-02T10:20:23;12.90;95.60
31113;DHT22;17763;48.730;9.136;2024-03-02T10:22:49;13.00;95.10
31113;DHT22;17763;48.730;9.136;2024-03-02T10:25:29;13.10;95.00
31113;DHT22;17763;48.730;9.136;2024-03-02T10:27:58;13.10;94.80
31113;DHT22;17763;48.730;9.136;2024-03-02T10:30:25;13.10;94.30
31113;DHT22;17763;48.730;9.136;2024-03-02T10:32:52;13.20;94.00
31113;DHT22;17763;48.730;9.136;2024-03-02T10:35:18;13.20;94.00
31113;DHT22;17763;48.730;9.136;2024-03-02T10:37:44;13.30;93.70
31113;DHT22;17763;48.730;9.136;2024-03-02T10:40:13;13.30;92.90
31113;DHT22;17763;48.730;9.136;2024-03-02T10:42:41;13.40;92.80
31113;DHT22;17763;48.730;9.136;2024-03-02T10:45:11;13.40;92.30
31113;DHT22;17763;48.730;9.136;2024-03-02T10:47:38;13.50;92.40
31113;DHT22;17763;48.730;9.136;2024-03-02T10:50:07;13.40;92.50
31113;DHT22;17763;48.730;9.136;2024-03-02T10:52:39;13.60;92.20
31113;DHT22;17763;48.730;9.136;2024-03-02T10:55:06;13.60;91.90
31113;DHT22;17763;48.730;9.136;2024-03-02T10:57:53;13.70;91.60
31113;DHT22;17763;48.730;9.136;2024-03-02T11:00:23;13.80;91.30
31113;DHT22;17763;48.730;9.136;2024-03-02T11:03:06;13.90;91.20
31113;DHT22;17763;48.730;9.136;2024-03-02T11:05:36;14.00;90.90
31113;DHT22;17763;48.730;9.136;2024-03-02T11:08:08;14.00;90.80
31113;DHT22;17763;48.730;9.136;2024-03-02T11:10:41;14.00;90.70
31113;DHT22;17763;48.730;9.136;2024-03-02T11:13:12;14.10;90.50
31113;DHT22;17763;48.730;9.136;2024-03-02T11:15:40;14.10;90.50
31113;DHT22;17763;48.730;9.136;2024-03-02T11:18:06;14.00;90.00
31113;DHT22;17763;48.730;9.136;2024-03-02T11:20:36;13.90;89.80
31113;DHT22;17763;48.730;9.136;2024-03-02T11:23:08;13.90;89.90
31113;DHT22;17763;48.730;9.136;2024-03-02T11:25:34;14.00;89.70
31113;DHT22;17763;48.730;9.136;2024-03-02T11:28:06;14.00;89.50
31113;DHT22;17763;48.730;9.136;2024-03-02T11:33:03;14.10;87.90
31113;DHT22;17763;48.730;9.136;2024-03-02T11:35:38;14.10;86.20
31113;DHT22;17763;48.730;9.136;2024-03-02T11:38:06;14.10;86.20
31113;DHT22;17763;48.730;9.136;2024-03-02T11:40:32;14.20;86.70
31113;DHT22;17763;48.730;9.136;2024-03-02T11:42:59;14.10;85.30
31113;DHT22;17763;48.730;9.136;2024-03-02T11:45:26;14.20;85.30
31113;DHT22;17763;48.730;9.136;2024-03-02T11:47:57;14.20;85.30
31113;DHT22;17763;48.730;9.136;2024-03-02T11:53:10;14.20;83.80
31113;DHT22;17763;48.730;9.136;2024-03-02T11:55:38;14.10;83.50
31113;DHT22;17763;48.730;9.136;2024-03-02T11:58:05;14.10;83.90
31113;DHT22;17763;48.730;9.136;2024-03-02T12:00:31;14.00;83.70
31113;DHT22;17763;48.730;9.136;2024-03-02T12:03:12;14.10;83.20
31113;DHT22;17763;48.730;9.136;2024-03-02T12:05:38;14.10;82.50
31113;DHT22;17763;48.730;9.136;2024-03-02T12:08:06;14.10;82.10
31113;DHT22;17763;48.730;9.136;2024-03-02T12:10:35;14.10;81.90
31113;DHT22;17763;48.730;9.136;2024-03-02T12:13:05;14.20;82.40
31113;DHT22;17763;48.730;9.136;2024-03-02T12:15:38;14.20;82.40
31113;DHT22;17763;48.730;9.136;2024-03-02T12:18:04;14.20;81.50
31113;DHT22;17763;48.730;9.136;2024-03-02T12:20:31;14.30;80.80
31113;DHT22;17763;48.730;9.136;2024-03-02T12:23:02;14.30;82.00
31113;DHT22;17763;48.730;9.136;2024-03-02T12:25:31;14.30;82.10
31113;DHT22;17763;48.730;9.136;2024-03-02T12:27:58;14.30;82.00
31113;DHT22;17763;48.730;9.136;2024-03-02T12:30:27;14.40;82.50
31113;DHT22;17763;48.730;9.136;2024-03-02T12:32:54;14.40;82.10
31113;DHT22;17763;48.730;9.136;2024-03-02T12:35:20;14.50;82.10
31113;DHT22;17763;48.730;9.136;2024-03-02T12:37:50;14.50;81.70
31113;DHT22;17763;48.730;9.136;2024-03-02T12:40:19;14.70;81.60
31113;DHT22;17763;48.730;9.136;2024-03-02T12:42:46;14.60;81.10
31113;DHT22;17763;48.730;9.136;2024-03-02T12:45:12;14.60;80.90
31113;DHT22;17763;48.730;9.136;2024-03-02T12:47:40;14.70;81.20
31113;DHT22;17763;48.730;9.136;2024-03-02T12:50:07;14.70;81.10
31113;DHT22;17763;48.730;9.136;2024-03-02T12:52:33;14.80;80.70
31113;DHT22;17763;48.730;9.136;2024-03-02T12:55:00;14.80;80.30
31113;DHT22;17763;48.730;9.136;2024-03-02T12:57:28;14.80;79.80
31113;DHT22;17763;48.730;9.136;2024-03-02T13:00:02;14.90;79.40
31113;DHT22;17763;48.730;9.136;2024-03-02T13:02:35;15.00;79.30
31113;DHT22;17763;48.730;9.136;2024-03-02T13:05:01;15.10;79.00
31113;DHT22;17763;48.730;9.136;2024-03-02T13:07:28;15.20;79.40
31113;DHT22;17763;48.730;9.136;2024-03-02T13:09:55;15.20;78.00
31113;DHT22;17763;48.730;9.136;2024-03-02T13:12:21;15.20;77.30
31113;DHT22;17763;48.730;9.136;2024-03-02T13:14:53;15.10;76.40
31113;DHT22;17763;48.730;9.136;2024-03-02T13:17:19;15.20;77.10
31113;DHT22;17763;48.730;9.136;2024-03-02T13:19:54;15.20;77.10
31113;DHT22;17763;48.730;9.136;2024-03-02T13:22:20;15.30;76.60
31113;DHT22;17763;48.730;9.136;2024-03-02T13:24:49;15.30;75.40
31113;DHT22;17763;48.730;9.136;2024-03-02T13:27:15;15.30;75.40
31113;DHT22;17763;48.730;9.136;2024-03-02T13:29:42;15.40;75.50
31113;DHT22;17763;48.730;9.136;2024-03-02T13:32:07;15.50;75.30
31113;DHT22;17763;48.730;9.136;2024-03-02T13:34:35;15.50;74.80
31113;DHT22;17763;48.730;9.136;2024-03-02T13:37:01;15.60;74.50
31113;DHT22;17763;48.730;9.136;2024-03-02T13:39:29;15.60;74.10
31113;DHT22;17763;48.730;9.136;2024-03-02T13:41:58;15.80;73.70
31113;DHT22;17763;48.730;9.136;2024-03-02T13:44:32;15.80;73.00
31113;DHT22;17763;48.730;9.136;2024-03-02T13:47:01;15.90;72.70
31113;DHT22;17763;48.730;9.136;2024-03-02T13:49:27;15.90;71.60
31113;DHT22;17763;48.730;9.136;2024-03-02T13:51:59;16.00;71.80
31113;DHT22;17763;48.730;9.136;2024-03-02T13:54:26;16.10;71.40
31113;DHT22;17763;48.730;9.136;2024-03-02T13:56:52;16.20;70.80
31113;DHT22;17763;48.730;9.136;2024-03-02T13:59:17;16.20;70.80
31113;DHT22;17763;48.730;9.136;2024-03-02T14:01:44;16.30;70.20
31113;DHT22;17763;48.730;9.136;2024-03-02T14:04:10;16.30;69.70
31113;DHT22;17763;48.730;9.136;2024-03-02T14:06:35;16.30;70.00
31113;DHT22;17763;48.730;9.136;2024-03-02T14:09:01;16.30;69.80
31113;DHT22;17763;48.730;9.136;2024-03-02T14:11:26;16.30;68.80
31113;DHT22;17763;48.730;9.136;2024-03-02T14:13:52;16.40;68.10
31113;DHT22;17763;48.730;9.136;2024-03-02T14:16:20;16.40;67.90
31113;DHT22;17763;48.730;9.136;2024-03-02T14:18:46;16.40;67.20
31113;DHT22;17763;48.730;9.136;2024-03-02T14:21:11;16.50;67.50
31113;DHT22;17763;48.730;9.136;2024-03-02T14:23:37;16.50;66.50
31113;DHT22;17763;48.730;9.136;2024-03-02T14:26:06;16.50;65.70
31113;DHT22;17763;48.730;9.136;2024-03-02T14:28:31;16.50;65.90
31113;DHT22;17763;48.730;9.136;2024-03-02T14:30:57;16.50;66.40
31113;DHT22;17763;48.730;9.136;2024-03-02T14:33:24;16.60;66.50
31113;DHT22;17763;48.730;9.136;2024-03-02T14:35:49;16.60;65.50
31113;DHT22;17763;48.730;9.136;2024-03-02T14:38:15;16.60;65.60
31113;DHT22;17763;48.730;9.136;2024-03-02T14:40:41;16.60;65.20
31113;DHT22;17763;48.730;9.136;2024-03-02T14:43:06;16.50;65.80
31113;DHT22;17763;48.730;9.136;2024-03-02T14:45:32;16.60;66.10
31113;DHT22;17763;48.730;9.136;2024-03-02T14:48:04;16.70;66.50
31113;DHT22;17763;48.730;9.136;2024-03-02T14:50:30;16.70;65.30
31113;DHT22;17763;48.730;9.136;2024-03-02T14:52:56;16.60;64.60
31113;DHT22;17763;48.730;9.136;2024-03-02T14:55:25;16.70;65.00
31113;DHT22;17763;48.730;9.136;2024-03-02T14:57:51;16.70;64.50
31113;DHT22;17763;48.730;9.136;2024-03-02T15:00:17;16.70;63.80
31113;DHT22;17763;48.730;9.136;2024-03-02T15:02:45;16.80;63.30
31113;DHT22;17763;48.730;9.136;2024-03-02T15:05:10;16.70;62.40
31113;DHT22;17763;48.730;9.136;2024-03-02T15:07:36;16.80;63.10
31113;DHT22;17763;48.730;9.136;2024-03-02T15:10:04;16.80;63.10
31113;DHT22;17763;48.730;9.136;2024-03-02T15:12:30;16.90;63.00
31113;DHT22;17763;48.730;9.136;2024-03-02T15:14:58;17.00;62.60
31113;DHT22;17763;48.730;9.136;2024-03-02T15:17:23;17.10;61.60
31113;DHT22;17763;48.730;9.136;2024-03-02T15:19:49;17.10;60.90
31113;DHT22;17763;48.730;9.136;2024-03-02T15:22:14;17.10;60.90
31113;DHT22;17763;48.730;9.136;2024-03-02T15:24:40;17.00;60.60
31113;DHT22;17763;48.730;9.136;2024-03-02T15:27:06;16.90;60.20
31113;DHT22;17763;48.730;9.136;2024-03-02T15:29:36;16.80;60.00
31113;DHT22;17763;48.730;9.136;2024-03-02T15:32:02;16.60;59.80
31113;DHT22;17763;48.730;9.136;2024-03-02T15:34:34;16.40;59.80
31113;DHT22;17763;48.730;9.136;2024-03-02T15:37:03;16.20;60.20
31113;DHT22;17763;48.730;9.136;2024-03-02T15:39:29;16.10;60.10
31113;DHT22;17763;48.730;9.136;2024-03-02T15:41:54;15.90;60.80
31113;DHT22;17763;48.730;9.136;2024-03-02T15:44:20;15.90;61.40
31113;DHT22;17763;48.730;9.136;2024-03-02T15:46:46;15.80;60.80
31113;DHT22;17763;48.730;9.136;2024-03-02T15:49:11;15.70;60.60
31113;DHT22;17763;48.730;9.136;2024-03-02T15:51:37;15.60;60.80
31113;DHT22;17763;48.730;9.136;2024-03-02T15:54:07;15.50;61.00